Time,TemperatureF,DewpointF,PressureIn,WindDirection,WindDirectionDegrees,WindSpeedMPH,WindSpeedGustMPH,Humidity,HourlyPrecipIn,Conditions,Clouds,dailyrainin,SoftwareType,DateUTC
2013-10-26 00:07:00,35.8,32.0,30.16,West,271,0.0,1.0,87,0.00,,,0.00,weatherlink.com 1.10,2013-10-26 04:07:00,
2013-10-26 00:22:00,34.7,32.0,30.17,ENE,57,0.0,1.0,88,0.00,,,0.00,weatherlink.com 1.10,2013-10-26 04:22:00,
2013-10-26 00:37:00,34.5,32.0,30.16,SW,236,0.0,2.0,90,0.00,,,0.00,weatherlink.com 1.10,2013-10-26 04:37:00,
2013-10-26 00:52:00,36.3,33.0,30.16,WSW,252,0.0,7.0,89,0.00,,,0.00,weatherlink.com 1.10,2013-10-26 04:52:00,
2013-10-26 01:07:00,38.8,34.0,30.16,West,264,2.0,6.0,84,0.00,,,0.00,weatherlink.com 1.10,2013-10-26 05:07:00,
2013-10-26 01:22:00,39.9,35.0,30.15,SW,215,1.0,3.0,81,0.00,,,0.00,weatherlink.com 1.10,2013-10-26 05:22:00,
2013-10-26 01:37:00,38.0,33.0,30.15,SW,233,0.0,1.0,83,0.00,,,0.00,weatherlink.com 1.10,2013-10-26 05:37:00,
2013-10-26 01:52:00,36.4,33.0,30.15,SSE,157,1.0,1.0,86,0.00,,,0.00,weatherlink.com 1.10,2013-10-26 05:52:00,
2013-10-26 02:07:00,34.9,32.0,30.15,East,94,1.0,1.0,88,0.00,,,0.00,weatherlink.com 1.10,2013-10-26 06:07:00,
2013-10-26 02:23:00,33.2,30.0,30.15,East,94,0.0,1.0,89,0.00,,,0.00,weatherlink.com 1.10,2013-10-26 06:23:00,
2013-10-26 02:38:00,32.5,31.0,30.15,East,94,0.0,1.0,92,0.00,,,0.00,weatherlink.com 1.10,2013-10-26 06:38:00,
2013-10-26 02:53:00,31.8,30.0,30.15,SW,217,1.0,2.0,94,0.00,,,0.00,weatherlink.com 1.10,2013-10-26 06:53:00,
2013-10-26 03:08:00,36.5,34.0,30.14,SSE,160,2.0,6.0,90,0.00,,,0.00,weatherlink.com 1.10,2013-10-26 07:08:00,
2013-10-26 03:23:00,38.5,34.0,30.14,SSW,195,1.0,5.0,83,0.00,,,0.00,weatherlink.com 1.10,2013-10-26 07:23:00,
2013-10-26 03:38:00,38.3,34.0,30.13,WSW,237,1.0,3.0,83,0.00,,,0.00,weatherlink.com 1.10,2013-10-26 07:38:00,
2013-10-26 03:53:00,35.3,31.0,30.13,SE,128,0.0,1.0,83,0.00,,,0.00,weatherlink.com 1.10,2013-10-26 07:53:00,
2013-10-26 04:08:00,33.0,30.0,30.13,ENE,65,0.0,2.0,88,0.00,,,0.00,weatherlink.com 1.10,2013-10-26 08:08:00,
2013-10-26 04:23:00,31.2,29.0,30.12,WSW,249,1.0,2.0,92,0.00,,,0.00,weatherlink.com 1.10,2013-10-26 08:23:00,
2013-10-26 04:38:00,34.7,33.0,30.12,West,277,6.0,6.0,92,0.00,,,0.00,weatherlink.com 1.10,2013-10-26 08:38:00,
2013-10-26 04:53:00,38.7,33.0,30.12,SSW,195,4.0,8.0,81,0.00,,,0.00,weatherlink.com 1.10,2013-10-26 08:53:00,
2013-10-26 05:08:00,40.0,33.0,30.12,West,260,7.0,9.0,77,0.00,,,0.00,weatherlink.com 1.10,2013-10-26 09:08:00,
2013-10-26 05:23:00,39.6,33.0,30.12,SW,214,6.0,10.0,77,0.00,,,0.00,weatherlink.com 1.10,2013-10-26 09:23:00,
2013-10-26 05:38:00,39.3,33.0,30.11,WSW,245,4.0,10.0,78,0.00,,,0.00,weatherlink.com 1.10,2013-10-26 09:38:00,
2013-10-26 05:53:00,39.3,33.0,30.11,South,188,7.0,9.0,78,0.00,,,0.00,weatherlink.com 1.10,2013-10-26 09:53:00,
2013-10-26 06:08:00,39.7,33.0,30.11,SSW,207,5.0,14.0,76,0.00,,,0.00,weatherlink.com 1.10,2013-10-26 10:08:00,
2013-10-26 06:23:00,39.7,32.0,30.11,SW,233,3.0,11.0,75,0.00,,,0.00,weatherlink.com 1.10,2013-10-26 10:23:00,
2013-10-26 06:38:00,39.7,32.0,30.11,WSW,250,4.0,10.0,74,0.00,,,0.00,weatherlink.com 1.10,2013-10-26 10:38:00,
2013-10-26 06:53:00,39.9,32.0,30.11,SW,224,8.0,10.0,73,0.00,,,0.00,weatherlink.com 1.10,2013-10-26 10:53:00,
2013-10-26 07:08:00,40.1,32.0,30.10,WSW,255,6.0,10.0,72,0.00,,,0.00,weatherlink.com 1.10,2013-10-26 11:08:00,
2013-10-26 07:23:00,40.2,31.0,30.10,SW,229,7.0,11.0,70,0.00,,,0.00,weatherlink.com 1.10,2013-10-26 11:23:00,
2013-10-26 07:38:00,40.4,31.0,30.10,WSW,238,4.0,12.0,69,0.00,,,0.00,weatherlink.com 1.10,2013-10-26 11:38:00,
2013-10-26 07:53:00,40.5,31.0,30.10,SSW,206,4.0,11.0,68,0.00,,,0.00,weatherlink.com 1.10,2013-10-26 11:53:00,
2013-10-26 08:08:00,40.7,30.0,30.10,SW,219,2.0,8.0,67,0.00,,,0.00,weatherlink.com 1.10,2013-10-26 12:08:00,
2013-10-26 08:23:00,39.8,31.0,30.10,South,173,4.0,6.0,72,0.00,,,0.00,weatherlink.com 1.10,2013-10-26 12:23:00,
2013-10-26 08:38:00,39.1,31.0,30.10,SSE,152,3.0,7.0,73,0.00,,,0.00,weatherlink.com 1.10,2013-10-26 12:38:00,
2013-10-26 08:53:00,37.8,32.0,30.10,SE,146,2.0,6.0,79,0.00,,,0.00,weatherlink.com 1.10,2013-10-26 12:53:00,
2013-10-26 09:08:00,37.4,32.0,30.10,SE,136,3.0,6.0,82,0.00,,,0.00,weatherlink.com 1.10,2013-10-26 13:08:00,
2013-10-26 09:23:00,37.3,33.0,30.10,SE,140,1.0,5.0,85,0.00,,,0.00,weatherlink.com 1.10,2013-10-26 13:23:00,
2013-10-26 09:38:00,37.9,34.0,30.09,SSE,163,3.0,5.0,85,0.00,,,0.00,weatherlink.com 1.10,2013-10-26 13:38:00,
2013-10-26 09:53:00,38.9,35.0,30.08,SE,126,2.0,7.0,85,0.00,,,0.00,weatherlink.com 1.10,2013-10-26 13:53:00,
2013-10-26 10:08:00,39.3,35.0,30.07,SSE,152,2.0,8.0,85,0.00,,,0.00,weatherlink.com 1.10,2013-10-26 14:08:00,
2013-10-26 10:23:00,39.8,35.0,30.07,SE,136,4.0,7.0,83,0.00,,,0.00,weatherlink.com 1.10,2013-10-26 14:23:00,
2013-10-26 10:38:00,40.3,36.0,30.07,East,96,2.0,5.0,83,0.00,,,0.00,weatherlink.com 1.10,2013-10-26 14:38:00,
2013-10-26 10:53:00,41.0,35.0,30.06,ENE,78,3.0,5.0,80,0.00,,,0.00,weatherlink.com 1.10,2013-10-26 14:53:00,
2013-10-26 11:09:00,41.7,35.0,30.05,ESE,115,3.0,6.0,78,0.00,,,0.00,weatherlink.com 1.10,2013-10-26 15:09:00,
2013-10-26 11:24:00,41.9,35.0,30.04,East,98,2.0,6.0,77,0.00,,,0.00,weatherlink.com 1.10,2013-10-26 15:24:00,
2013-10-26 11:39:00,42.1,35.0,30.03,ESE,105,0.0,7.0,77,0.00,,,0.00,weatherlink.com 1.10,2013-10-26 15:39:00,
2013-10-26 11:54:00,43.8,36.0,30.02,ESE,115,3.0,4.0,74,0.00,,,0.00,weatherlink.com 1.10,2013-10-26 15:54:00,
2013-10-26 12:09:00,46.6,37.0,30.00,SE,124,2.0,8.0,69,0.00,,,0.00,weatherlink.com 1.10,2013-10-26 16:09:00,
2013-10-26 12:24:00,46.9,34.0,29.99,SE,124,6.0,8.0,62,0.00,,,0.00,weatherlink.com 1.10,2013-10-26 16:24:00,
2013-10-26 12:39:00,47.2,34.0,29.98,SE,145,1.0,8.0,61,0.00,,,0.00,weatherlink.com 1.10,2013-10-26 16:39:00,
2013-10-26 12:54:00,47.9,34.0,29.97,SE,134,3.0,6.0,59,0.00,,,0.00,weatherlink.com 1.10,2013-10-26 16:54:00,
2013-10-26 13:09:00,48.7,34.0,29.96,SE,124,2.0,8.0,57,0.00,,,0.00,weatherlink.com 1.10,2013-10-26 17:09:00,
2013-10-26 13:24:00,49.4,34.0,29.95,SSE,150,3.0,7.0,56,0.00,,,0.00,weatherlink.com 1.10,2013-10-26 17:24:00,
2013-10-26 13:39:00,50.3,29.0,29.95,WSW,250,4.0,18.0,44,0.00,,,0.00,weatherlink.com 1.10,2013-10-26 17:39:00,
2013-10-26 13:54:00,51.1,30.0,29.94,SSW,208,4.0,6.0,44,0.00,,,0.00,weatherlink.com 1.10,2013-10-26 17:54:00,
2013-10-26 14:09:00,51.2,30.0,29.94,SSE,148,1.0,9.0,45,0.00,,,0.00,weatherlink.com 1.10,2013-10-26 18:09:00,
2013-10-26 14:24:00,51.2,30.0,29.92,SSW,203,6.0,8.0,45,0.00,,,0.00,weatherlink.com 1.10,2013-10-26 18:24:00,
2013-10-26 14:39:00,51.5,31.0,29.91,SSW,204,2.0,7.0,45,0.00,,,0.00,weatherlink.com 1.10,2013-10-26 18:39:00,
2013-10-26 14:54:00,51.9,29.0,29.91,South,186,2.0,10.0,42,0.00,,,0.00,weatherlink.com 1.10,2013-10-26 18:54:00,
2013-10-26 15:09:00,52.1,29.0,29.89,ESE,110,1.0,12.0,42,0.00,,,0.00,weatherlink.com 1.10,2013-10-26 19:09:00,
2013-10-26 15:24:00,52.7,31.0,29.88,South,177,5.0,10.0,44,0.00,,,0.00,weatherlink.com 1.10,2013-10-26 19:24:00,
2013-10-26 15:39:00,52.4,31.0,29.87,East,101,2.0,10.0,44,0.00,,,0.00,weatherlink.com 1.10,2013-10-26 19:39:00,
2013-10-26 15:54:00,51.9,31.0,29.88,SSE,155,8.0,13.0,45,0.00,,,0.00,weatherlink.com 1.10,2013-10-26 19:54:00,
2013-10-26 16:09:00,51.6,32.0,29.87,SE,134,1.0,10.0,47,0.00,,,0.00,weatherlink.com 1.10,2013-10-26 20:09:00,
2013-10-26 16:25:00,51.6,30.0,29.86,SSW,203,3.0,12.0,44,0.00,,,0.00,weatherlink.com 1.10,2013-10-26 20:25:00,
2013-10-26 16:40:00,51.6,30.0,29.86,West,265,5.0,13.0,44,0.00,,,0.00,weatherlink.com 1.10,2013-10-26 20:40:00,
2013-10-26 16:55:00,51.3,30.0,29.86,SSE,159,4.0,14.0,45,0.00,,,0.00,weatherlink.com 1.10,2013-10-26 20:55:00,
2013-10-26 17:10:00,51.1,30.0,29.86,SSE,162,8.0,16.0,44,0.00,,,0.00,weatherlink.com 1.10,2013-10-26 21:10:00,
2013-10-26 17:25:00,50.9,29.0,29.86,ENE,57,6.0,11.0,44,0.00,,,0.00,weatherlink.com 1.10,2013-10-26 21:25:00,
2013-10-26 17:40:00,50.8,29.0,29.86,SSW,205,3.0,6.0,44,0.00,,,0.00,weatherlink.com 1.10,2013-10-26 21:40:00,
2013-10-26 17:55:00,50.7,29.0,29.87,SW,224,7.0,8.0,44,0.00,,,0.00,weatherlink.com 1.10,2013-10-26 21:55:00,
2013-10-26 18:10:00,50.6,29.0,29.87,South,189,1.0,6.0,44,0.00,,,0.00,weatherlink.com 1.10,2013-10-26 22:10:00,
2013-10-26 18:25:00,50.4,29.0,29.88,ESE,115,2.0,4.0,44,0.00,,,0.00,weatherlink.com 1.10,2013-10-26 22:25:00,
2013-10-26 18:40:00,50.0,29.0,29.88,SSW,210,2.0,4.0,45,0.00,,,0.00,weatherlink.com 1.10,2013-10-26 22:40:00,
2013-10-26 18:55:00,50.0,30.0,29.89,SSW,193,1.0,6.0,47,0.00,,,0.00,weatherlink.com 1.10,2013-10-26 22:55:00,
2013-10-26 19:10:00,50.3,30.0,29.89,ESE,117,3.0,10.0,46,0.00,,,0.00,weatherlink.com 1.10,2013-10-26 23:10:00,
2013-10-26 19:25:00,50.1,31.0,29.89,SSW,198,8.0,13.0,48,0.00,,,0.00,weatherlink.com 1.10,2013-10-26 23:25:00,
2013-10-26 19:40:00,49.3,32.0,29.88,SE,141,1.0,8.0,51,0.00,,,0.00,weatherlink.com 1.10,2013-10-26 23:40:00,
2013-10-26 19:55:00,49.0,31.0,29.87,ENE,71,2.0,6.0,51,0.00,,,0.00,weatherlink.com 1.10,2013-10-26 23:55:00,
2013-10-26 20:10:00,48.8,32.0,29.87,SE,129,1.0,5.0,52,0.00,,,0.00,weatherlink.com 1.10,2013-10-27 00:10:00,
2013-10-26 20:25:00,48.3,32.0,29.86,SSE,158,1.0,2.0,54,0.00,,,0.00,weatherlink.com 1.10,2013-10-27 00:25:00,
2013-10-26 20:40:00,47.9,32.0,29.86,SSE,158,0.0,2.0,55,0.00,,,0.00,weatherlink.com 1.10,2013-10-27 00:40:00,
2013-10-26 20:55:00,47.7,32.0,29.85,SE,138,0.0,2.0,54,0.00,,,0.00,weatherlink.com 1.10,2013-10-27 00:55:00,
2013-10-26 21:10:00,47.7,32.0,29.85,SSW,194,0.0,2.0,55,0.00,,,0.00,weatherlink.com 1.10,2013-10-27 01:10:00,
2013-10-26 21:25:00,47.8,31.0,29.85,SE,132,3.0,4.0,53,0.00,,,0.00,weatherlink.com 1.10,2013-10-27 01:25:00,
2013-10-26 21:40:00,47.4,32.0,29.85,East,89,0.0,1.0,55,0.00,,,0.00,weatherlink.com 1.10,2013-10-27 01:40:00,
2013-10-26 21:55:00,46.4,33.0,29.85,SSE,149,0.0,2.0,61,0.00,,,0.00,weatherlink.com 1.10,2013-10-27 01:55:00,
2013-10-26 22:10:00,46.1,32.0,29.85,SSW,203,0.0,2.0,59,0.00,,,0.00,weatherlink.com 1.10,2013-10-27 02:10:00,
2013-10-26 22:25:00,46.8,32.0,29.85,SSW,197,1.0,6.0,56,0.00,,,0.00,weatherlink.com 1.10,2013-10-27 02:25:00,
2013-10-26 22:40:00,47.0,32.0,29.85,SSW,198,1.0,2.0,56,0.00,,,0.00,weatherlink.com 1.10,2013-10-27 02:40:00,
2013-10-26 22:55:00,46.9,32.0,29.84,SSE,155,1.0,4.0,56,0.00,,,0.00,weatherlink.com 1.10,2013-10-27 02:55:00,
2013-10-26 23:10:00,46.9,32.0,29.84,SSE,155,1.0,4.0,56,0.00,,,0.00,weatherlink.com 1.10,2013-10-27 03:10:00,
2013-10-26 23:25:00,47.0,32.0,29.83,SSE,158,1.0,3.0,57,0.00,,,0.00,weatherlink.com 1.10,2013-10-27 03:25:00,
2013-10-26 23:40:00,46.4,32.0,29.83,South,170,2.0,3.0,58,0.00,,,0.00,weatherlink.com 1.10,2013-10-27 03:40:00,
2013-10-26 23:56:00,46.8,32.0,29.82,SSW,207,4.0,6.0,57,0.00,,,0.00,weatherlink.com 1.10,2013-10-27 03:56:00,